Time;durP1;ratioP1;P1;durP2;ratioP2;P2;SDS_P1;SDS_P2;PMS_P1;PMS_P2;Temp;Humidity;BMP_temperature;BMP_pressure;BME280_temperature;BME280_humidity;BME280_pressure;Samples;Min_cycle;Max_cycle;Signal;HPM_P1;HPM_P2
2023/11/12 00:03:44;;;;;;;;;;;;;;;20.67;41.48;94953.78;10492181;28;1594;-48
2023/11/12 00:08:46;;;;;;;;;;;;;;;20.64;42.67;94955.13;10457878;28;1934;-51
2023/11/12 00:13:47;;;;;;;;;;;;;;;20.63;42.09;94948.28;10482300;28;1451;-49
2023/11/12 00:18:48;;;;;;;;;;;;;;;20.63;40.54;94939.63;10467432;28;1489;-47
2023/11/12 00:23:49;;;;;;;;;;;;;;;20.62;41.95;94940.69;10481865;28;1635;-49
2023/11/12 00:28:50;;;;;;;;;;;;;;;20.60;41.69;94925.19;10492591;28;2373;-50
2023/11/12 00:33:51;;;;;;;;;;;;;;;20.57;41.29;94923.13;10483108;28;1508;-51
2023/11/12 00:38:51;;;;;;;;;;;;;;;20.58;41.73;94929.97;10486887;28;1650;-50
2023/11/12 00:43:51;;;;;;;;;;;;;;;20.57;41.64;94923.13;10484794;28;4708;-49
2023/11/12 00:48:52;;;;;;;;;;;;;;;20.47;41.31;94918.06;10471660;28;2560;-52
2023/11/12 00:53:52;;;;;;;;;;;;;;;20.40;41.11;94922.16;10472959;28;2542;-50
2023/11/12 00:58:52;;;;;;;;;;;;;;;20.35;41.12;94930.16;10472963;28;2592;-53
2023/11/12 01:03:53;;;;;;;;;;;;;;;20.27;41.10;94926.34;10462600;28;2596;-51
2023/11/12 01:08:53;;;;;;;;;;;;;;;20.19;40.86;94932.25;10468420;28;2614;-54
2023/11/12 01:13:53;;;;;;;;;;;;;;;20.15;40.75;94926.00;10470674;28;2587;-53
2023/11/12 01:18:58;;;;;;;;;;;;;;;20.09;40.90;94909.50;10470181;28;2590;-50
2023/11/12 01:23:58;;;;;;;;;;;;;;;20.03;40.76;94897.53;10472186;28;2557;-53
2023/11/12 01:28:59;;;;;;;;;;;;;;;20.01;40.73;94898.91;10475241;28;2677;-54
2023/11/12 01:34:00;;;;;;;;;;;;;;;19.95;40.63;94887.66;10467626;28;2749;-50
2023/11/12 01:39:00;;;;;;;;;;;;;;;19.91;40.59;94888.53;10475282;28;2714;-53
2023/11/12 01:44:01;;;;;;;;;;;;;;;19.87;40.78;94877.81;10464471;28;2684;-52
2023/11/12 01:49:03;;;;;;;;;;;;;;;19.85;40.48;94871.28;10455000;28;2642;-52
2023/11/12 01:54:03;;;;;;;;;;;;;;;19.83;40.55;94862.91;10456569;28;2624;-50
2023/11/12 01:59:04;;;;;;;;;;;;;;;19.78;40.59;94855.91;10471160;28;2787;-51
2023/11/12 02:04:04;;;;;;;;;;;;;;;19.77;40.48;94856.16;10472445;28;2922;-51
2023/11/12 02:09:05;;;;;;;;;;;;;;;19.73;40.67;94848.09;10472660;28;2584;-51
2023/11/12 02:14:07;;;;;;;;;;;;;;;19.71;40.76;94854.69;10472109;28;2663;-52
2023/11/12 02:19:21;;;;;;;;;;;;;;;19.69;40.53;94848.94;10462680;28;2605;-49
2023/11/12 02:24:24;;;;;;;;;;;;;;;19.66;40.40;94833.75;10474054;28;2543;-52
2023/11/12 02:29:24;;;;;;;;;;;;;;;19.63;40.53;94831.69;10477958;28;2595;-51
2023/11/12 02:34:25;;;;;;;;;;;;;;;19.63;40.51;94834.31;10473489;28;2617;-50
2023/11/12 02:39:25;;;;;;;;;;;;;;;19.60;40.69;94837.56;10463073;28;2613;-51
2023/11/12 02:44:25;;;;;;;;;;;;;;;19.58;40.46;94837.06;10480946;28;2681;-48
2023/11/12 02:49:33;;;;;;;;;;;;;;;19.55;40.74;94825.28;10478364;28;2619;-52
2023/11/12 02:54:35;;;;;;;;;;;;;;;19.55;40.75;94824.47;10461230;28;2663;-52
2023/11/12 02:59:35;;;;;;;;;;;;;;;19.53;40.48;94829.25;10478648;28;2627;-50
2023/11/12 03:04:35;;;;;;;;;;;;;;;19.51;40.62;94818.25;10485601;28;2630;-49
2023/11/12 03:09:35;;;;;;;;;;;;;;;19.48;40.30;94817.75;10480293;28;2596;-53
2023/11/12 03:14:36;;;;;;;;;;;;;;;19.46;40.50;94814.63;10476902;28;2630;-53
2023/11/12 03:19:37;;;;;;;;;;;;;;;19.43;40.38;94807.31;10472892;28;2612;-49
2023/11/12 03:24:37;;;;;;;;;;;;;;;19.43;40.50;94807.31;10474839;28;2595;-53
2023/11/12 03:29:37;;;;;;;;;;;;;;;19.41;40.19;94798.94;10465456;28;2604;-54
2023/11/12 03:34:38;;;;;;;;;;;;;;;19.38;40.28;94796.91;10477435;28;2579;-52
2023/11/12 03:39:38;;;;;;;;;;;;;;;19.37;40.23;94790.06;10471149;28;2530;-51
2023/11/12 03:44:41;;;;;;;;;;;;;;;19.35;40.30;94776.44;10472438;28;4593;-50
2023/11/12 03:49:42;;;;;;;;;;;;;;;19.35;40.17;94770.44;10469771;28;2561;-54
2023/11/12 03:54:42;;;;;;;;;;;;;;;19.32;40.27;94763.06;10471242;28;2618;-53
2023/11/12 03:59:43;;;;;;;;;;;;;;;19.30;40.35;94754.69;10487025;28;2628;-53
2023/11/12 04:04:43;;;;;;;;;;;;;;;19.30;40.16;94747.59;10471571;28;2529;-53
2023/11/12 04:09:44;;;;;;;;;;;;;;;19.28;40.32;94741.06;10467398;28;2600;-55
2023/11/12 04:14:44;;;;;;;;;;;;;;;19.27;40.33;94736.88;10473624;28;2558;-54
2023/11/12 04:19:44;;;;;;;;;;;;;;;19.25;40.19;94746.91;10453255;28;2730;-54
2023/11/12 04:24:44;;;;;;;;;;;;;;;19.24;40.17;94732.22;10476314;28;2613;-51
2023/11/12 04:29:45;;;;;;;;;;;;;;;19.21;40.34;94730.94;10476553;28;2596;-51
2023/11/12 04:34:46;;;;;;;;;;;;;;;19.20;40.15;94716.25;10462366;28;6293;-52
2023/11/12 04:39:47;;;;;;;;;;;;;;;19.19;40.17;94714.69;10453262;28;5373;-52
2023/11/12 04:44:48;;;;;;;;;;;;;;;19.17;40.26;94706.31;10472014;28;5382;-52
2023/11/12 04:49:48;;;;;;;;;;;;;;;19.16;40.17;94704.78;10466766;28;5514;-53
2023/11/12 04:54:50;;;;;;;;;;;;;;;19.14;40.18;94701.66;10470685;28;2605;-49
2023/11/12 04:59:50;;;;;;;;;;;;;;;19.13;40.16;94705.34;10462036;28;2572;-50
2023/11/12 05:04:51;;;;;;;;;;;;;;;19.10;39.77;94698.00;10470490;28;2600;-54
2023/11/12 05:09:51;;;;;;;;;;;;;;;19.17;40.14;94700.28;10473901;28;5196;-52
2023/11/12 05:14:51;;;;;;;;;;;;;;;19.21;40.22;94694.16;10470493;28;2643;-52
2023/11/12 05:19:52;;;;;;;;;;;;;;;19.28;40.32;94691.94;10463263;28;2715;-52
2023/11/12 05:24:52;;;;;;;;;;;;;;;19.37;40.48;94690.22;10436625;28;2626;-53
2023/11/12 05:29:53;;;;;;;;;;;;;;;19.44;40.38;94674.06;10480458;28;2624;-58
2023/11/12 05:34:54;;;;;;;;;;;;;;;19.50;40.79;94678.16;10467899;28;2652;-51
2023/11/12 05:39:54;;;;;;;;;;;;;;;19.56;40.37;94671.72;10474330;28;2696;-51
2023/11/12 05:44:54;;;;;;;;;;;;;;;19.64;40.40;94678.16;10467122;28;4978;-52
2023/11/12 05:49:54;;;;;;;;;;;;;;;19.66;40.35;94668.91;10474321;28;2557;-53
2023/11/12 05:54:55;;;;;;;;;;;;;;;19.72;40.16;94664.34;10481293;28;2624;-47
2023/11/12 05:59:55;;;;;;;;;;;;;;;19.77;39.53;94664.22;10475925;28;2640;-53
2023/11/12 06:04:55;;;;;;;;;;;;;;;19.81;39.30;94668.59;10461341;28;2623;-50
2023/11/12 06:09:56;;;;;;;;;;;;;;;19.85;39.87;94668.78;10473538;28;2620;-50
2023/11/12 06:14:56;;;;;;;;;;;;;;;19.89;39.22;94677.63;10471246;28;2654;-52
2023/11/12 06:19:56;;;;;;;;;;;;;;;19.93;38.90;94681.22;10477624;28;2601;-53
2023/11/12 06:24:56;;;;;;;;;;;;;;;19.96;39.86;94691.19;10479745;28;2653;-51
2023/11/12 06:29:57;;;;;;;;;;;;;;;20.00;39.41;94686.88;10473189;28;2561;-54
2023/11/12 06:34:58;;;;;;;;;;;;;;;20.04;38.96;94690.47;10473321;28;2627;-52
2023/11/12 06:39:58;;;;;;;;;;;;;;;20.07;39.12;94700.44;10473967;28;2810;-53
2023/11/12 06:45:00;;;;;;;;;;;;;;;20.09;38.96;94706.94;10478436;28;5262;-52
2023/11/12 06:50:01;;;;;;;;;;;;;;;20.11;39.07;94699.53;10485201;28;2668;-50
2023/11/12 06:55:03;;;;;;;;;;;;;;;20.13;39.04;94712.41;10472744;28;2687;-49
2023/11/12 07:00:04;;;;;;;;;;;;;;;20.12;39.12;94722.16;10476727;28;2478;-50
2023/11/12 07:05:05;;;;;;;;;;;;;;;20.13;39.65;94728.94;10474535;28;2587;-52
2023/11/12 07:10:05;;;;;;;;;;;;;;;20.14;38.92;94730.53;10477567;28;2549;-51
2023/11/12 07:15:06;;;;;;;;;;;;;;;20.14;39.08;94724.47;10476825;28;2660;-51
2023/11/12 07:20:09;;;;;;;;;;;;;;;20.13;39.11;94733.44;10458554;28;2581;-54
2023/11/12 07:25:09;;;;;;;;;;;;;;;20.14;39.06;94740.25;10474578;28;2695;-48
2023/11/12 07:30:10;;;;;;;;;;;;;;;20.15;39.20;94737.31;10456727;28;2596;-48
2023/11/12 07:35:13;;;;;;;;;;;;;;;20.14;38.74;94735.78;10476256;28;2620;-53
2023/11/12 07:40:15;;;;;;;;;;;;;;;20.19;39.08;94737.53;10471510;28;2574;-50
2023/11/12 07:45:16;;;;;;;;;;;;;;;20.21;38.91;94745.94;10470962;28;5105;-50
2023/11/12 07:50:16;;;;;;;;;;;;;;;20.25;39.16;94742.44;10470080;28;2554;-54
2023/11/12 07:55:19;;;;;;;;;;;;;;;20.31;39.03;94747.56;10471533;28;2609;-53
2023/11/12 08:00:22;;;;;;;;;;;;;;;20.36;39.74;94750.88;10478606;28;1988;-53
2023/11/12 08:05:22;;;;;;;;;;;;;;;20.37;39.43;94752.44;10483597;28;2324;-54
2023/11/12 08:10:23;;;;;;;;;;;;;;;20.42;39.12;94747.06;10487684;28;1973;-52
2023/11/12 08:15:23;;;;;;;;;;;;;;;20.40;39.35;94736.06;10477807;28;2158;-52
2023/11/12 08:20:23;;;;;;;;;;;;;;;20.38;39.59;94735.56;10496923;28;1520;-51
2023/11/12 08:25:24;;;;;;;;;;;;;;;20.37;39.36;94739.28;10460202;28;1562;-52
2023/11/12 08:30:25;;;;;;;;;;;;;;;20.37;39.44;94749.03;10476961;28;1969;-49
2023/11/12 08:35:26;;;;;;;;;;;;;;;20.34;39.16;94750.38;10474330;28;1527;-51
2023/11/12 08:40:26;;;;;;;;;;;;;;;20.31;38.53;94750.19;10476694;28;1475;-50
2023/11/12 08:45:27;;;;;;;;;;;;;;;20.23;39.30;94754.31;10474157;28;5300;-51
2023/11/12 08:50:28;;;;;;;;;;;;;;;20.23;39.08;94763.00;10473542;28;1930;-51
2023/11/12 08:55:28;;;;;;;;;;;;;;;20.23;39.51;94770.09;10457864;28;1543;-53
2023/11/12 09:00:28;;;;;;;;;;;;;;;20.20;39.63;94773.31;10464924;28;1460;-55
2023/11/12 09:05:28;;;;;;;;;;;;;;;20.14;39.85;94772.63;10484600;28;2382;-49
2023/11/12 09:10:29;;;;;;;;;;;;;;;20.13;39.47;94786.81;10474767;28;1977;-52
2023/11/12 09:15:29;;;;;;;;;;;;;;;20.14;40.12;94782.34;10488550;28;1452;-52
2023/11/12 09:20:29;;;;;;;;;;;;;;;20.10;40.19;94779.53;10486465;28;1543;-51
2023/11/12 09:25:30;;;;;;;;;;;;;;;20.13;40.44;94791.34;10499689;28;2672;-54
2023/11/12 09:30:33;;;;;;;;;;;;;;;20.10;41.02;94803.22;10492469;28;2706;-52
2023/11/12 09:35:34;;;;;;;;;;;;;;;20.13;41.75;94802.63;10472855;28;2656;-52
2023/11/12 09:40:35;;;;;;;;;;;;;;;20.11;41.64;94810.03;10481272;28;2918;-50
2023/11/12 09:45:39;;;;;;;;;;;;;;;20.09;41.21;94816.66;10477004;28;2731;-53
2023/11/12 09:50:39;;;;;;;;;;;;;;;20.08;41.20;94815.09;10475120;28;2683;-54
2023/11/12 09:55:39;;;;;;;;;;;;;;;20.02;41.03;94811.78;10458991;28;2647;-52
2023/11/12 10:00:39;;;;;;;;;;;;;;;20.04;41.29;94817.53;10479711;28;3009;-50
2023/11/12 10:05:40;;;;;;;;;;;;;;;19.99;41.46;94822.88;10478665;28;2612;-52
2023/11/12 10:10:41;;;;;;;;;;;;;;;19.95;41.50;94816.66;10466572;28;2699;-53
2023/11/12 10:15:42;;;;;;;;;;;;;;;19.96;41.05;94818.22;10450934;28;2631;-52
2023/11/12 10:20:44;;;;;;;;;;;;;;;19.92;41.89;94822.50;10452055;28;2609;-53
2023/11/12 10:25:47;;;;;;;;;;;;;;;19.90;41.39;94818.59;10481249;28;2620;-51
2023/11/12 10:30:52;;;;;;;;;;;;;;;19.87;41.59;94821.78;10480033;28;2637;-51
2023/11/12 10:35:53;;;;;;;;;;;;;;;19.84;41.73;94827.66;10463151;28;2789;-49
2023/11/12 10:41:01;;;;;;;;;;;;;;;19.82;41.64;94827.97;10476641;28;4408;-53
2023/11/12 10:46:03;;;;;;;;;;;;;;;19.84;41.45;94835.53;10479547;28;2653;-49
2023/11/12 10:51:05;;;;;;;;;;;;;;;19.78;41.52;94829.59;10474009;28;2536;-51
2023/11/12 10:56:05;;;;;;;;;;;;;;;19.80;41.77;94824.03;10476104;28;2663;-51
2023/11/12 11:01:07;;;;;;;;;;;;;;;19.77;41.62;94833.28;10482332;28;2613;-52
2023/11/12 11:06:07;;;;;;;;;;;;;;;19.74;41.99;94819.94;10473046;28;2646;-50
2023/11/12 11:11:07;;;;;;;;;;;;;;;19.72;41.85;94824.72;10459911;28;2549;-52
2023/11/12 11:16:08;;;;;;;;;;;;;;;19.70;42.06;94824.22;10482925;28;2877;-51
2023/11/12 11:21:17;;;;;;;;;;;;;;;19.67;41.74;94820.31;10479194;28;2703;-53
2023/11/12 11:26:26;;;;;;;;;;;;;;;19.65;41.76;94834.81;10477412;28;2610;-50
2023/11/12 11:31:27;;;;;;;;;;;;;;;19.65;41.25;94834.81;10478655;28;2611;-52
2023/11/12 11:36:27;;;;;;;;;;;;;;;19.61;41.83;94836.47;10476225;28;2597;-51
2023/11/12 11:41:27;;;;;;;;;;;;;;;19.59;41.90;94831.50;10456920;28;4538;-51
2023/11/12 11:46:28;;;;;;;;;;;;;;;19.57;41.19;94836.28;10480466;28;2546;-51
2023/11/12 11:51:28;;;;;;;;;;;;;;;19.55;41.38;94827.91;10472148;28;2624;-50
2023/11/12 11:56:29;;;;;;;;;;;;;;;19.54;41.51;94825.56;10469655;28;2686;-54
2023/11/12 12:01:29;;;;;;;;;;;;;;;19.53;41.30;94835.28;10456423;28;3050;-54
2023/11/12 12:06:30;;;;;;;;;;;;;;;19.51;41.35;94837.44;10450832;28;2654;-51
2023/11/12 12:11:33;;;;;;;;;;;;;;;19.54;41.28;94836.84;10474617;28;2632;-49
2023/11/12 12:16:34;;;;;;;;;;;;;;;19.56;41.69;94841.81;10477602;28;2622;-52
2023/11/12 12:21:36;;;;;;;;;;;;;;;19.55;41.45;94842.88;10473929;28;2743;-51
2023/11/12 12:26:37;;;;;;;;;;;;;;;19.52;41.97;94844.22;10470125;28;2726;-51
2023/11/12 12:31:37;;;;;;;;;;;;;;;19.53;41.47;94839.75;10445910;28;2584;-50
2023/11/12 12:36:38;;;;;;;;;;;;;;;19.53;40.96;94845.00;10451612;28;2617;-51
2023/11/12 12:41:38;;;;;;;;;;;;;;;19.51;42.02;94844.53;10454917;28;4412;-54
2023/11/12 12:46:51;;;;;;;;;;;;;;;19.50;41.29;94851.63;10459040;28;2705;-51
2023/11/12 12:51:51;;;;;;;;;;;;;;;19.48;41.17;94846.66;10479206;28;2639;-53
2023/11/12 12:56:52;;;;;;;;;;;;;;;19.45;41.42;94839.34;10472654;28;2577;-52
2023/11/12 13:01:52;;;;;;;;;;;;;;;19.44;41.64;94832.53;10456665;28;2628;-54
2023/11/12 13:06:52;;;;;;;;;;;;;;;19.43;41.50;94835.47;10469554;28;2683;-52
2023/11/12 13:11:53;;;;;;;;;;;;;;;19.40;41.17;94831.56;10471654;28;2703;-52
2023/11/12 13:16:54;;;;;;;;;;;;;;;19.37;41.87;94834.75;10478004;28;2561;-51
2023/11/12 13:21:57;;;;;;;;;;;;;;;19.35;41.69;94829.00;10478350;28;2571;-50
2023/11/12 13:26:57;;;;;;;;;;;;;;;19.30;41.66;94828.28;10450227;28;2620;-54
2023/11/12 13:31:59;;;;;;;;;;;;;;;19.31;41.49;94838.50;10475250;28;2544;-53
2023/11/12 13:36:59;;;;;;;;;;;;;;;19.31;41.78;94835.06;10459729;28;2917;-53
2023/11/12 13:42:02;;;;;;;;;;;;;;;19.26;41.82;94837.78;10468873;28;4652;-51
2023/11/12 13:47:02;;;;;;;;;;;;;;;19.24;41.00;94832.84;10477761;28;2529;-52
2023/11/12 13:52:05;;;;;;;;;;;;;;;19.23;41.43;94839.16;10486461;28;2661;-52
2023/11/12 13:57:06;;;;;;;;;;;;;;;19.22;41.19;94852.56;10485989;28;2667;-52
2023/11/12 14:02:07;;;;;;;;;;;;;;;19.19;41.64;94851.28;10480236;28;2604;-51
2023/11/12 14:07:08;;;;;;;;;;;;;;;19.19;41.73;94850.50;10476710;28;2560;-54
2023/11/12 14:12:08;;;;;;;;;;;;;;;19.15;41.72;94852.94;10479127;28;2604;-50
2023/11/12 14:17:08;;;;;;;;;;;;;;;19.16;41.80;94851.88;10479983;28;2566;-53
2023/11/12 14:22:13;;;;;;;;;;;;;;;19.14;41.48;94848.75;10479379;28;2747;-52
2023/11/12 14:27:13;;;;;;;;;;;;;;;19.12;41.83;94848.25;10465213;28;2699;-51
2023/11/12 14:32:14;;;;;;;;;;;;;;;19.11;41.68;94854.56;10460416;28;2735;-53
2023/11/12 14:37:15;;;;;;;;;;;;;;;19.14;41.37;94848.75;10472474;28;2680;-52
2023/11/12 14:42:15;;;;;;;;;;;;;;;19.20;41.26;94858.13;10478189;28;4470;-53
2023/11/12 14:47:16;;;;;;;;;;;;;;;19.23;41.64;94865.41;10472287;28;3019;-54
2023/11/12 14:52:17;;;;;;;;;;;;;;;19.30;42.01;94865.84;10487216;28;2596;-50
2023/11/12 14:57:17;;;;;;;;;;;;;;;19.36;41.93;94866.56;10474621;28;2679;-50
2023/11/12 15:02:17;;;;;;;;;;;;;;;19.42;41.90;94879.34;10460907;28;2671;-55
2023/11/12 15:07:17;;;;;;;;;;;;;;;19.51;42.24;94876.06;10472431;28;2615;-51
2023/11/12 15:12:18;;;;;;;;;;;;;;;19.58;40.85;94873.88;10478079;28;2770;-52
2023/11/12 15:17:20;;;;;;;;;;;;;;;19.64;40.57;94877.97;10469344;28;2636;-54
2023/11/12 15:22:24;;;;;;;;;;;;;;;19.68;40.30;94866.56;10471097;28;2655;-53
2023/11/12 15:27:24;;;;;;;;;;;;;;;19.79;39.87;94861.91;10460585;28;2847;-52
2023/11/12 15:32:27;;;;;;;;;;;;;;;19.88;40.95;94857.56;10467103;28;2625;-52
2023/11/12 15:37:27;;;;;;;;;;;;;;;19.94;40.39;94859.81;10474915;28;2624;-53
2023/11/12 15:42:30;;;;;;;;;;;;;;;20.02;40.41;94864.41;10455723;28;4668;-53
2023/11/12 15:47:30;;;;;;;;;;;;;;;20.07;40.50;94861.66;10476223;28;2493;-53
2023/11/12 15:52:30;;;;;;;;;;;;;;;20.15;40.35;94862.88;10475068;28;2724;-53
2023/11/12 15:57:31;;;;;;;;;;;;;;;20.22;39.93;94861.41;10469178;28;2627;-49
2023/11/12 16:02:31;;;;;;;;;;;;;;;20.23;39.57;94862.22;10468913;28;2576;-50
2023/11/12 16:07:31;;;;;;;;;;;;;;;20.30;40.05;94873.09;10456165;28;2978;-50
2023/11/12 16:12:33;;;;;;;;;;;;;;;20.35;40.08;94874.88;10477782;28;2632;-54
2023/11/12 16:17:33;;;;;;;;;;;;;;;20.41;39.46;94882.38;10469644;28;2664;-55
2023/11/12 16:22:33;;;;;;;;;;;;;;;20.45;38.93;94880.72;10460962;28;2545;-52
2023/11/12 16:27:35;;;;;;;;;;;;;;;20.46;39.89;94884.94;10475256;28;2576;-51
2023/11/12 16:32:38;;;;;;;;;;;;;;;20.50;39.56;94893.81;10454670;28;2602;-51
2023/11/12 16:37:46;;;;;;;;;;;;;;;20.50;39.15;94898.28;10468498;28;2611;-51
2023/11/12 16:42:47;;;;;;;;;;;;;;;20.55;38.75;94888.41;10468504;28;2549;-51
2023/11/12 16:47:47;;;;;;;;;;;;;;;20.55;39.50;94893.69;10447315;28;2606;-51
2023/11/12 16:52:48;;;;;;;;;;;;;;;20.56;39.33;94900.53;10476566;28;2671;-51
2023/11/12 16:57:49;;;;;;;;;;;;;;;20.59;38.66;94910.47;10472901;28;2668;-50
2023/11/12 17:02:49;;;;;;;;;;;;;;;20.61;39.17;94918.84;10468155;28;2628;-49
2023/11/12 17:07:50;;;;;;;;;;;;;;;20.62;39.24;94917.78;10471958;28;2780;-52
2023/11/12 17:12:53;;;;;;;;;;;;;;;20.64;39.06;94920.91;10453696;28;2663;-52
2023/11/12 17:17:54;;;;;;;;;;;;;;;20.69;38.31;94926.06;10469454;28;2619;-52
2023/11/12 17:22:54;;;;;;;;;;;;;;;20.69;38.99;94931.31;10475000;28;2601;-50
2023/11/12 17:27:56;;;;;;;;;;;;;;;20.71;39.08;94939.72;10479664;28;2576;-52
2023/11/12 17:32:56;;;;;;;;;;;;;;;20.71;38.98;94944.97;10477036;28;2660;-52
2023/11/12 17:37:57;;;;;;;;;;;;;;;20.72;38.10;94951.81;10473928;28;2624;-50
2023/11/12 17:42:57;;;;;;;;;;;;;;;20.78;38.26;94945.38;10473226;28;4738;-51
2023/11/12 17:47:58;;;;;;;;;;;;;;;20.76;38.91;94942.25;10476438;28;2972;-51
2023/11/12 17:52:58;;;;;;;;;;;;;;;20.84;38.59;94938.94;10479567;28;2606;-52
2023/11/12 17:57:59;;;;;;;;;;;;;;;20.89;39.24;94941.47;10482228;28;2656;-54
2023/11/12 18:02:59;;;;;;;;;;;;;;;20.86;39.34;94952.59;10462230;28;2675;-51
2023/11/12 18:08:00;;;;;;;;;;;;;;;20.94;39.04;94964.28;10485013;28;2580;-53
2023/11/12 18:13:00;;;;;;;;;;;;;;;20.96;39.26;94956.84;10475356;28;2614;-49
2023/11/12 18:18:01;;;;;;;;;;;;;;;21.02;39.23;94961.75;10475389;28;2682;-51
2023/11/12 18:23:01;;;;;;;;;;;;;;;20.98;39.57;94960.75;10485469;28;2669;-52
2023/11/12 18:28:02;;;;;;;;;;;;;;;21.02;39.54;94955.72;10481700;28;2576;-53
2023/11/12 18:33:02;;;;;;;;;;;;;;;20.87;38.47;94945.47;10477039;28;2686;-54
2023/11/12 18:38:03;;;;;;;;;;;;;;;20.20;36.69;94949.63;10479890;28;2744;-51
2023/11/12 18:43:04;;;;;;;;;;;;;;;19.61;36.56;94947.66;10472211;28;4637;-50
2023/11/12 18:48:08;;;;;;;;;;;;;;;19.82;36.27;94951.56;10482394;28;2628;-52
2023/11/12 18:53:09;;;;;;;;;;;;;;;19.95;37.30;94948.16;10475695;28;2591;-53
2023/11/12 18:58:12;;;;;;;;;;;;;;;20.15;37.41;94947.06;10464470;28;2592;-54
2023/11/12 19:03:13;;;;;;;;;;;;;;;20.26;37.56;94958.97;10474222;28;2556;-53
2023/11/12 19:08:16;;;;;;;;;;;;;;;20.36;37.50;94964.06;10473050;28;2671;-53
2023/11/12 19:13:19;;;;;;;;;;;;;;;20.43;37.74;94964.47;10484881;28;2646;-52
2023/11/12 19:18:20;;;;;;;;;;;;;;;20.43;38.63;94969.75;10475160;28;2627;-48
2023/11/12 19:23:20;;;;;;;;;;;;;;;20.52;38.79;94978.53;10483436;28;2094;-52
2023/11/12 19:28:21;;;;;;;;;;;;;;;20.58;38.61;94980.00;10480354;28;1943;-48
2023/11/12 19:33:21;;;;;;;;;;;;;;;20.65;39.15;94977.00;10461315;28;1902;-52
2023/11/12 19:38:23;;;;;;;;;;;;;;;20.74;39.15;94985.75;10476054;28;1989;-52
2023/11/12 19:43:23;;;;;;;;;;;;;;;20.76;39.34;94989.66;10478218;28;4653;-50
2023/11/12 19:48:24;;;;;;;;;;;;;;;20.82;38.99;95012.19;10466817;28;1906;-52
2023/11/12 19:53:26;;;;;;;;;;;;;;;20.85;39.15;95003.72;10485384;28;1456;-51
2023/11/12 19:58:27;;;;;;;;;;;;;;;20.91;39.77;95009.66;10479200;28;1484;-50
2023/11/12 20:03:27;;;;;;;;;;;;;;;20.97;39.35;95016.41;10475653;28;1475;-51
2023/11/12 20:08:27;;;;;;;;;;;;;;;20.92;39.87;95024.38;10477769;28;1968;-53
2023/11/12 20:13:28;;;;;;;;;;;;;;;20.96;39.49;95028.78;10455620;28;2311;-52
2023/11/12 20:18:29;;;;;;;;;;;;;;;21.00;39.58;95031.59;10478520;28;1514;-50
2023/11/12 20:23:31;;;;;;;;;;;;;;;21.01;39.78;95033.97;10464684;28;1461;-48
2023/11/12 20:28:32;;;;;;;;;;;;;;;20.98;39.93;95026.63;10480222;28;1973;-47
2023/11/12 20:33:32;;;;;;;;;;;;;;;21.00;39.31;95021.84;10444770;28;1572;-50
2023/11/12 20:38:37;;;;;;;;;;;;;;;21.06;39.58;95025.22;10452520;28;1672;-51
2023/11/12 20:43:38;;;;;;;;;;;;;;;20.99;39.46;95025.56;10473744;28;4700;-52
2023/11/12 20:48:38;;;;;;;;;;;;;;;21.04;39.63;95028.13;10471443;28;1906;-50
2023/11/12 20:53:39;;;;;;;;;;;;;;;20.98;39.25;95020.56;10480757;28;1498;-49
2023/11/12 20:58:40;;;;;;;;;;;;;;;20.91;39.43;95030.75;10484589;28;1765;-52
2023/11/12 21:03:40;;;;;;;;;;;;;;;20.94;39.29;95028.28;10472788;28;1660;-51
2023/11/12 21:08:40;;;;;;;;;;;;;;;20.92;39.51;95038.34;10428511;28;1102908;-51
2023/11/12 21:13:40;;;;;;;;;;;;;;;20.88;39.15;95026.84;10483482;28;1449;-52
2023/11/12 21:18:41;;;;;;;;;;;;;;;20.85;39.08;95051.13;10485650;28;1463;-54
2023/11/12 21:23:41;;;;;;;;;;;;;;;20.76;39.67;95054.72;10485923;28;1453;-52
2023/11/12 21:28:43;;;;;;;;;;;;;;;20.75;38.80;95061.84;10483812;28;1922;-51
2023/11/12 21:33:44;;;;;;;;;;;;;;;20.72;39.59;95061.63;10486027;28;1436;-52
2023/11/12 21:38:44;;;;;;;;;;;;;;;20.74;39.64;95044.47;10482775;28;1468;-51
2023/11/12 21:43:45;;;;;;;;;;;;;;;20.77;39.48;95049.16;10479666;28;4530;-51
2023/11/12 21:48:47;;;;;;;;;;;;;;;20.73;39.42;95047.41;10479142;28;1973;-52
2023/11/12 21:53:50;;;;;;;;;;;;;;;20.71;39.88;95033.75;10485157;28;1456;-50
2023/11/12 21:58:50;;;;;;;;;;;;;;;20.72;39.74;95044.00;10462988;28;1502;-49
2023/11/12 22:03:51;;;;;;;;;;;;;;;20.71;39.89;95042.41;10489650;28;1701;-51
2023/11/12 22:08:51;;;;;;;;;;;;;;;20.68;39.08;95061.44;10483452;28;1918;-52
2023/11/12 22:13:53;;;;;;;;;;;;;;;20.63;39.44;95056.25;10478078;28;2649;-50
2023/11/12 22:18:53;;;;;;;;;;;;;;;20.59;39.17;95065.81;10461383;28;2616;-52
2023/11/12 22:23:54;;;;;;;;;;;;;;;20.54;38.72;95058.00;10476275;28;2600;-49
2023/11/12 22:28:54;;;;;;;;;;;;;;;20.48;38.99;95059.16;10478355;28;2589;-50
2023/11/12 22:33:55;;;;;;;;;;;;;;;20.41;39.42;95066.66;10458548;28;2660;-52
2023/11/12 22:38:55;;;;;;;;;;;;;;;20.33;39.63;95075.19;10482715;28;2640;-50
2023/11/12 22:43:58;;;;;;;;;;;;;;;20.29;39.43;95068.94;10480519;28;3209;-49
2023/11/12 22:48:58;;;;;;;;;;;;;;;20.25;40.02;95076.66;10481001;28;2584;-48
2023/11/12 22:53:58;;;;;;;;;;;;;;;20.21;39.97;95091.44;10475516;28;2615;-51
2023/11/12 22:58:59;;;;;;;;;;;;;;;20.15;40.01;95089.91;10478522;28;2636;-51
2023/11/12 23:03:59;;;;;;;;;;;;;;;20.12;39.67;95089.69;10469818;28;2680;-52
2023/11/12 23:09:06;;;;;;;;;;;;;;;20.09;39.59;95100.81;10479466;28;2596;-52
2023/11/12 23:14:06;;;;;;;;;;;;;;;20.05;39.41;95111.09;10471779;28;2609;-50
2023/11/12 23:19:07;;;;;;;;;;;;;;;20.02;39.28;95103.00;10484923;28;2581;-54
2023/11/12 23:24:08;;;;;;;;;;;;;;;19.95;40.03;95102.56;10458987;28;2549;-52
2023/11/12 23:29:08;;;;;;;;;;;;;;;19.94;39.43;95096.56;10478627;28;2685;-53
2023/11/12 23:34:08;;;;;;;;;;;;;;;19.91;39.75;95112.09;10465357;28;2575;-50
2023/11/12 23:39:10;;;;;;;;;;;;;;;19.87;39.70;95119.78;10476577;28;2655;-52
2023/11/12 23:44:10;;;;;;;;;;;;;;;19.83;40.08;95105.63;10474753;28;4642;-47
2023/11/12 23:49:10;;;;;;;;;;;;;;;19.80;40.21;95119.38;10479955;28;2644;-51
2023/11/12 23:54:11;;;;;;;;;;;;;;;19.79;39.61;95119.63;10472665;28;2571;-52
2023/11/12 23:59:12;;;;;;;;;;;;;;;19.75;39.71;95116.78;10480227;28;2791;-46
